createdAt,value
2023-05-12T00:00:40.331Z,100609.94
2023-05-12T00:03:42.152Z,100593.69
2023-05-12T00:06:43.785Z,100607.03
2023-05-12T00:09:45.341Z,100609.00
2023-05-12T00:12:47.843Z,100611.50
2023-05-12T00:15:50.802Z,100606.91
2023-05-12T00:18:52.548Z,100595.63
2023-05-12T00:21:54.262Z,100607.63
2023-05-12T00:24:55.840Z,100612.47
2023-05-12T00:27:57.452Z,100611.75
2023-05-12T00:31:03.199Z,100613.28
2023-05-12T00:34:04.824Z,100606.63
2023-05-12T00:37:06.551Z,100604.00
2023-05-12T00:40:09.453Z,100596.19
2023-05-12T00:43:11.559Z,100582.56
2023-05-12T00:46:13.218Z,100602.03
2023-05-12T00:49:14.878Z,100600.81
2023-05-12T00:52:16.505Z,100597.19
2023-05-12T00:55:18.185Z,100595.09
2023-05-12T00:58:19.739Z,100592.72
2023-05-12T01:01:21.568Z,100599.97
2023-05-12T01:04:23.357Z,100588.44
2023-05-12T01:07:26.117Z,100603.00
2023-05-12T01:10:27.722Z,100581.75
2023-05-12T01:13:29.294Z,100584.41
2023-05-12T01:16:37.201Z,100579.25
2023-05-12T01:19:47.449Z,100601.09
2023-05-12T01:22:50.100Z,100608.47
2023-05-12T01:25:52.931Z,100606.53
2023-05-12T01:28:55.442Z,100606.75
2023-05-12T01:31:57.448Z,100602.03
2023-05-12T01:34:59.194Z,100619.69
2023-05-12T01:38:00.799Z,100603.00
2023-05-12T01:41:02.363Z,100606.78
2023-05-12T01:44:03.933Z,100599.53
2023-05-12T01:47:05.644Z,100606.91
2023-05-12T01:50:07.936Z,100598.31
2023-05-12T01:53:12.476Z,100595.09
2023-05-12T01:56:14.160Z,100595.69
2023-05-12T01:59:15.786Z,100614.16
2023-05-12T02:02:17.465Z,100613.31
2023-05-12T02:05:19.275Z,100597.19
2023-05-12T02:08:21.550Z,100619.28
2023-05-12T02:11:23.286Z,100611.09
2023-05-12T02:14:24.926Z,100609.56
2023-05-12T02:17:28.202Z,100618.59
2023-05-12T02:20:29.858Z,100608.44
2023-05-12T02:23:31.611Z,100601.19
2023-05-12T02:26:33.229Z,100610.97
2023-05-12T02:29:34.866Z,100607.63
2023-05-12T02:32:36.471Z,100616.09
2023-05-12T02:35:38.250Z,100594.81
2023-05-12T02:38:40.405Z,100608.72
2023-05-12T02:41:42.031Z,100620.00
2023-05-12T02:44:43.616Z,100607.34
2023-05-12T02:47:45.331Z,100617.63
2023-05-12T02:50:46.912Z,100613.47
2023-05-12T02:53:48.540Z,100606.38
2023-05-12T02:56:50.156Z,100595.66
2023-05-12T02:59:51.719Z,100600.66
2023-05-12T03:02:53.311Z,100605.38
2023-05-12T03:05:55.360Z,100619.44
2023-05-12T03:08:56.990Z,100596.63
2023-05-12T03:11:58.533Z,100616.09
2023-05-12T03:15:00.121Z,100613.19
2023-05-12T03:18:01.759Z,100611.25
2023-05-12T03:21:03.720Z,100608.44
2023-05-12T03:24:05.970Z,100617.09
2023-05-12T03:27:07.722Z,100605.25
2023-05-12T03:30:09.799Z,100617.38
2023-05-12T03:33:11.343Z,100611.94
2023-05-12T03:36:12.917Z,100606.78
2023-05-12T03:39:14.480Z,100607.06
2023-05-12T03:42:16.257Z,100606.47
2023-05-12T03:45:18.054Z,100603.16
2023-05-12T03:48:19.650Z,100603.16
2023-05-12T03:51:21.250Z,100594.41
2023-05-12T03:54:22.824Z,100617.38
2023-05-12T03:57:24.404Z,100620.84
2023-05-12T04:00:26.200Z,100610.81
2023-05-12T04:03:31.209Z,100614.44
2023-05-12T04:06:32.839Z,100610.38
2023-05-12T04:09:34.430Z,100624.84
2023-05-12T04:12:36.155Z,100616.94
2023-05-12T04:15:38.209Z,100610.53
2023-05-12T04:18:39.872Z,100622.09
2023-05-12T04:21:41.581Z,100618.72
2023-05-12T04:24:43.131Z,100634.59
2023-05-12T04:27:44.731Z,100639.72
2023-05-12T04:30:46.360Z,100622.34
2023-05-12T04:33:48.466Z,100643.91
2023-05-12T04:36:50.161Z,100632.78
2023-05-12T04:39:51.811Z,100641.13
2023-05-12T04:42:53.568Z,100640.16
2023-05-12T04:45:55.508Z,100625.13
2023-05-12T04:48:57.217Z,100644.72
2023-05-12T04:51:58.802Z,100636.41
2023-05-12T04:55:00.363Z,100637.22
2023-05-12T04:58:01.984Z,100663.53
2023-05-12T05:01:03.751Z,100658.53
2023-05-12T05:04:05.586Z,100648.78
2023-05-12T05:07:07.177Z,100661.56
2023-05-12T05:10:09.187Z,100671.31
2023-05-12T05:13:10.736Z,100672.13
2023-05-12T05:16:12.320Z,100674.09
2023-05-12T05:19:20.802Z,100671.75
2023-05-12T05:22:24.110Z,100675.47
2023-05-12T05:25:26.914Z,100677.28
2023-05-12T05:28:29.005Z,100666.81
2023-05-12T05:31:30.609Z,100677.41
2023-05-12T05:34:32.250Z,100684.88
2023-05-12T05:37:33.892Z,100690.50
2023-05-12T05:40:48.837Z,100688.13
2023-05-12T05:43:53.504Z,100686.88
2023-05-12T05:46:55.105Z,100680.75
2023-05-12T05:49:56.704Z,100695.53
2023-05-12T05:52:58.306Z,100682.72
2023-05-12T05:55:59.874Z,100681.06
2023-05-12T05:59:05.586Z,100684.06
2023-05-12T06:02:07.357Z,100696.34
2023-05-12T06:05:09.710Z,100683.53
2023-05-12T06:08:13.548Z,100695.41
2023-05-12T06:11:17.891Z,100687.47
2023-05-12T06:14:19.646Z,100690.69
2023-05-12T06:17:22.007Z,100690.56
2023-05-12T06:20:23.680Z,100692.78
2023-05-12T06:23:25.392Z,100702.50
2023-05-12T06:26:26.930Z,100687.75
2023-05-12T06:29:28.519Z,100703.34
2023-05-12T06:32:30.196Z,100696.66
2023-05-12T06:35:32.043Z,100698.59
2023-05-12T06:38:33.614Z,100705.72
2023-05-12T06:41:35.207Z,100709.06
2023-05-12T06:44:36.970Z,100694.59
2023-05-12T06:47:39.268Z,100698.88
2023-05-12T06:50:42.280Z,100696.41
2023-05-12T06:53:43.900Z,100705.72
2023-05-12T06:56:45.969Z,100703.47
2023-05-12T06:59:47.727Z,100699.03
2023-05-12T07:02:49.373Z,100698.34
2023-05-12T07:05:51.285Z,100706.69
2023-05-12T07:08:52.897Z,100719.47
2023-05-12T07:11:54.942Z,100699.03
2023-05-12T07:14:56.526Z,100715.03
2023-05-12T07:17:58.143Z,100713.94
2023-05-12T07:21:00.121Z,100711.28
2023-05-12T07:24:01.791Z,100703.91
2023-05-12T07:27:03.542Z,100712.81
2023-05-12T07:30:08.814Z,100713.06
2023-05-12T07:33:10.428Z,100721.28
2023-05-12T07:36:12.018Z,100711.81
2023-05-12T07:39:15.114Z,100724.09
2023-05-12T07:42:16.742Z,100710.59
2023-05-12T07:45:23.063Z,100720.19
2023-05-12T07:48:24.717Z,100713.09
2023-05-12T07:51:26.354Z,100730.47
2023-05-12T07:54:27.919Z,100729.22
2023-05-12T07:57:29.486Z,100733.56
2023-05-12T08:00:31.122Z,100724.78
2023-05-12T08:03:35.999Z,100742.44
2023-05-12T08:06:37.735Z,100741.19
2023-05-12T08:09:39.325Z,100740.63
2023-05-12T08:12:41.719Z,100742.31
2023-05-12T08:15:43.330Z,100742.56
2023-05-12T08:18:45.076Z,100747.06
2023-05-12T08:21:46.700Z,100748.16
2023-05-12T08:24:48.308Z,100734.81
2023-05-12T08:27:49.854Z,100735.09
2023-05-12T08:30:51.559Z,100737.88
2023-05-12T08:34:08.934Z,100739.94
2023-05-12T08:37:12.301Z,100747.63
2023-05-12T08:40:21.018Z,100742.31
2023-05-12T08:43:30.029Z,100723.09
2023-05-12T08:46:32.165Z,100728.69
2023-05-12T08:49:36.378Z,100743.44
2023-05-12T08:52:39.155Z,100731.59
2023-05-12T08:55:54.392Z,100732.56
2023-05-12T08:59:09.256Z,100732.44
2023-05-12T09:02:11.712Z,100747.06
2023-05-12T09:05:13.369Z,100740.66
2023-05-12T09:08:15.466Z,100739.53
2023-05-12T09:11:17.902Z,100738.28
2023-05-12T09:14:25.633Z,100728.41
2023-05-12T09:17:27.316Z,100737.56
2023-05-12T09:20:31.904Z,100744.38
2023-05-12T09:23:33.750Z,100749.81
2023-05-12T09:26:45.696Z,100750.19
2023-05-12T09:29:59.076Z,100762.78
2023-05-12T09:33:12.342Z,100751.69
2023-05-12T09:36:21.662Z,100756.72
2023-05-12T09:39:23.449Z,100754.28
2023-05-12T09:42:29.116Z,100755.56
2023-05-12T09:45:34.977Z,100742.31
2023-05-12T09:48:39.013Z,100745.78
2023-05-12T09:51:41.590Z,100756.72
2023-05-12T09:54:43.500Z,100758.09
2023-05-12T09:57:45.610Z,100761.78
2023-05-12T10:03:57.101Z,100764.16
2023-05-12T10:06:59.568Z,100749.38
2023-05-12T10:10:04.420Z,100753.88
2023-05-12T10:13:06.336Z,100766.28
2023-05-12T10:16:08.925Z,100758.34
2023-05-12T10:19:11.100Z,100756.91
2023-05-12T10:22:16.033Z,100757.94
2023-05-12T10:25:18.255Z,100762.53
2023-05-12T10:28:20.311Z,100755.28
2023-05-12T10:31:23.207Z,100757.84
2023-05-12T10:34:30.615Z,100760.94
2023-05-12T10:37:32.623Z,100758.50
2023-05-12T10:40:34.431Z,100754.16
2023-05-12T10:43:45.226Z,100762.97
2023-05-12T10:46:57.963Z,100764.47
2023-05-12T10:49:59.689Z,100758.00
2023-05-12T10:53:01.402Z,100758.28
2023-05-12T10:56:07.979Z,100757.63
2023-05-12T10:59:25.457Z,100764.53
2023-05-12T11:02:32.327Z,100758.75
2023-05-12T11:05:35.524Z,100759.59
2023-05-12T11:08:37.812Z,100767.31
2023-05-12T11:11:40.472Z,100759.81
2023-05-12T11:14:44.672Z,100761.81
2023-05-12T11:17:46.850Z,100771.69
2023-05-12T11:20:48.875Z,100782.84
2023-05-12T11:23:51.258Z,100782.97
2023-05-12T11:26:52.864Z,100777.25
2023-05-12T11:30:02.940Z,100791.88
2023-05-12T11:33:04.656Z,100780.19
2023-05-12T11:36:06.762Z,100786.31
2023-05-12T11:39:15.754Z,100786.56
2023-05-12T11:42:19.770Z,100792.16
2023-05-12T11:45:28.606Z,100799.13
2023-05-12T11:48:34.729Z,100784.34
2023-05-12T11:51:36.465Z,100797.88
2023-05-12T11:54:38.337Z,100798.13
2023-05-12T11:57:39.904Z,100812.34
2023-05-12T12:00:42.201Z,100794.94
2023-05-12T12:03:51.250Z,100804.25
2023-05-12T12:06:52.946Z,100812.47
2023-05-12T12:09:54.519Z,100809.94
2023-05-12T12:12:56.147Z,100811.88
2023-05-12T12:15:57.880Z,100811.72
2023-05-12T12:18:59.556Z,100812.56
2023-05-12T12:22:01.176Z,100821.75
2023-05-12T12:25:03.690Z,100814.81
2023-05-12T12:28:05.936Z,100823.03
2023-05-12T12:31:07.535Z,100816.22
2023-05-12T12:34:09.366Z,100822.50
2023-05-12T12:37:11.269Z,100817.38
2023-05-12T12:40:12.844Z,100820.72
2023-05-12T12:43:14.468Z,100813.06
2023-05-12T12:46:16.014Z,100816.66
2023-05-12T12:49:17.553Z,100810.81
2023-05-12T12:52:23.959Z,100822.94
2023-05-12T12:55:25.929Z,100814.44
2023-05-12T12:58:27.829Z,100830.88
2023-05-12T13:01:29.793Z,100822.53
2023-05-12T13:04:31.450Z,100832.25
2023-05-12T13:07:33.571Z,100826.84
2023-05-12T13:10:35.436Z,100824.47
2023-05-12T13:13:38.124Z,100825.31
2023-05-12T13:16:39.796Z,100831.69
2023-05-12T13:19:42.002Z,100837.16
2023-05-12T13:22:44.290Z,100836.97
2023-05-12T13:25:46.500Z,100835.44
2023-05-12T13:28:48.061Z,100838.88
2023-05-12T13:31:49.629Z,100822.13
2023-05-12T13:34:51.241Z,100834.41
2023-05-12T13:37:53.055Z,100831.22
2023-05-12T13:40:54.610Z,100832.59
2023-05-12T13:43:56.253Z,100841.91
2023-05-12T13:46:57.858Z,100825.03
2023-05-12T13:49:59.520Z,100843.28
2023-05-12T13:53:01.270Z,100834.44
2023-05-12T13:56:02.971Z,100845.97
2023-05-12T13:59:05.361Z,100847.66
2023-05-12T14:02:09.878Z,100851.47
2023-05-12T14:05:12.042Z,100848.38
2023-05-12T14:08:13.701Z,100852.72
2023-05-12T14:11:15.841Z,100863.84
2023-05-12T14:14:17.390Z,100847.31
2023-05-12T14:17:19.107Z,100856.97
2023-05-12T14:20:20.697Z,100854.44
2023-05-12T14:23:22.312Z,100859.09
2023-05-12T14:26:25.644Z,100867.59
2023-05-12T14:29:27.417Z,100862.13
2023-05-12T14:32:29.081Z,100863.63
2023-05-12T14:35:30.694Z,100858.84
2023-05-12T14:38:32.213Z,100874.13
2023-05-12T14:41:34.033Z,100855.25
2023-05-12T14:44:35.631Z,100874.63
2023-05-12T14:47:37.696Z,100873.66
2023-05-12T14:50:39.386Z,100877.53
2023-05-12T14:53:40.963Z,100871.38
2023-05-12T14:56:43.129Z,100857.88
2023-05-12T14:59:44.693Z,100866.25
2023-05-12T15:02:46.524Z,100867.91
2023-05-12T15:06:04.666Z,100859.16
2023-05-12T15:09:08.479Z,100866.03
2023-05-12T15:12:10.305Z,100868.44
2023-05-12T15:15:12.175Z,100871.56
2023-05-12T15:18:13.801Z,100871.31
2023-05-12T15:21:15.557Z,100870.13
2023-05-12T15:24:17.150Z,100870.63
2023-05-12T15:27:18.846Z,100871.91
2023-05-12T15:30:20.678Z,100863.34
2023-05-12T15:33:22.282Z,100862.25
2023-05-12T15:36:24.224Z,100867.13
2023-05-12T15:39:26.343Z,100869.41
2023-05-12T15:42:32.930Z,100849.47
2023-05-12T15:45:37.915Z,100867.63
2023-05-12T15:48:39.759Z,100872.28
2023-05-12T15:51:41.438Z,100866.50
2023-05-12T15:54:43.027Z,100851.75
2023-05-12T15:57:44.731Z,100863.72
2023-05-12T16:00:46.553Z,100856.94
2023-05-12T16:03:50.133Z,100863.50
2023-05-12T16:06:51.768Z,100861.69
2023-05-12T16:09:53.344Z,100862.81
2023-05-12T16:12:54.892Z,100850.56
2023-05-12T16:15:57.489Z,100848.34
2023-05-12T16:18:59.193Z,100859.47
2023-05-12T16:22:00.801Z,100854.59
2023-05-12T16:25:02.418Z,100848.22
2023-05-12T16:28:04.303Z,100872.97
2023-05-12T16:31:05.893Z,100873.94
2023-05-12T16:34:08.651Z,100874.19
2023-05-12T16:37:10.253Z,100874.63
2023-05-12T16:40:12.220Z,100877.81
2023-05-12T16:43:13.869Z,100875.81
2023-05-12T16:46:15.565Z,100878.34
2023-05-12T16:49:17.272Z,100886.06
2023-05-12T16:52:19.197Z,100885.22
2023-05-12T16:55:21.624Z,100879.28
2023-05-12T16:58:24.101Z,100884.06
2023-05-12T17:01:25.839Z,100895.06
2023-05-12T17:04:27.532Z,100886.00
2023-05-12T17:07:29.198Z,100879.91
2023-05-12T17:10:30.791Z,100890.06
2023-05-12T17:13:35.835Z,100889.06
2023-05-12T17:16:37.554Z,100890.78
2023-05-12T17:19:41.921Z,100884.66
2023-05-12T17:22:47.198Z,100891.59
2023-05-12T17:25:48.880Z,100886.44
2023-05-12T17:28:50.502Z,100889.22
2023-05-12T17:31:52.136Z,100902.88
2023-05-12T17:34:53.806Z,100892.59
2023-05-12T17:37:55.769Z,100898.16
2023-05-12T17:40:57.394Z,100902.28
2023-05-12T17:43:59.225Z,100890.72
2023-05-12T17:47:00.907Z,100909.13
2023-05-12T17:50:02.531Z,100908.03
2023-05-12T17:53:04.082Z,100912.06
2023-05-12T17:56:05.933Z,100909.94
2023-05-12T17:59:07.489Z,100914.94
2023-05-12T18:02:09.048Z,100909.53
2023-05-12T18:05:11.014Z,100916.03
2023-05-12T18:08:12.602Z,100924.66
2023-05-12T18:11:14.660Z,100922.03
2023-05-12T18:14:16.876Z,100931.03
2023-05-12T18:17:19.674Z,100923.25
2023-05-12T18:20:21.352Z,100907.25
2023-05-12T18:23:22.946Z,100905.44
2023-05-12T18:26:24.542Z,100928.84
2023-05-12T18:29:26.314Z,100916.28
2023-05-12T18:32:27.994Z,100932.47
2023-05-12T18:35:29.757Z,100929.50
2023-05-12T18:38:31.331Z,100940.50
2023-05-12T18:41:33.004Z,100938.28
2023-05-12T18:44:34.576Z,100951.03
2023-05-12T18:47:36.416Z,100955.47
2023-05-12T18:50:37.992Z,100958.38
2023-05-12T18:53:39.550Z,100934.25
2023-05-12T18:56:41.237Z,100948.44
2023-05-12T18:59:42.827Z,100954.31
2023-05-12T19:02:45.272Z,100964.34
2023-05-12T19:05:48.909Z,100964.03
2023-05-12T19:08:50.944Z,100969.56
2023-05-12T19:11:52.580Z,100976.78
2023-05-12T19:14:54.258Z,100970.81
2023-05-12T19:17:55.870Z,100967.19
2023-05-12T19:20:57.484Z,100974.22
2023-05-12T19:23:59.205Z,100971.44
2023-05-12T19:27:01.389Z,100977.53
2023-05-12T19:30:05.103Z,100980.06
2023-05-12T19:33:06.840Z,100987.00
2023-05-12T19:36:09.770Z,100984.63
2023-05-12T19:39:11.353Z,100985.34
2023-05-12T19:42:13.079Z,100982.22
2023-05-12T19:45:15.605Z,100993.13
2023-05-12T19:48:17.734Z,100984.38
2023-05-12T19:51:19.364Z,100997.06
2023-05-12T19:54:20.926Z,100990.84
2023-05-12T19:57:23.118Z,100998.03
2023-05-12T20:00:26.705Z,100997.06
2023-05-12T20:03:28.313Z,100996.13
2023-05-12T20:06:30.862Z,100993.03
2023-05-12T20:09:32.830Z,100999.84
2023-05-12T20:12:34.392Z,101008.72
2023-05-12T20:15:35.959Z,100986.31
2023-05-12T20:18:37.841Z,101003.31
2023-05-12T20:21:41.456Z,100992.75
2023-05-12T20:24:44.719Z,100993.75
2023-05-12T20:27:46.666Z,100989.66
2023-05-12T20:30:48.235Z,100992.19
2023-05-12T20:33:49.768Z,100994.31
2023-05-12T20:36:51.384Z,100998.16
2023-05-12T20:39:54.082Z,100980.81
2023-05-12T20:42:55.721Z,100995.66
2023-05-12T20:45:57.369Z,100989.28
2023-05-12T20:48:59.153Z,100998.03
2023-05-12T20:52:00.760Z,101001.06
2023-05-12T20:55:02.517Z,100990.63
2023-05-12T20:58:04.090Z,101004.56
2023-05-12T21:01:05.791Z,101002.16
2023-05-12T21:04:07.727Z,100993.84
2023-05-12T21:07:09.334Z,101004.66
2023-05-12T21:10:11.497Z,100991.22
2023-05-12T21:13:13.165Z,101005.97
2023-05-12T21:16:15.551Z,101013.22
2023-05-12T21:19:17.153Z,101005.91
2023-05-12T21:22:18.731Z,101009.44
2023-05-12T21:25:20.790Z,100999.03
2023-05-12T21:28:22.365Z,100986.34
2023-05-12T21:31:24.102Z,100997.97
2023-05-12T21:34:26.429Z,101002.50
2023-05-12T21:37:27.998Z,101003.13
2023-05-12T21:40:30.035Z,101001.06
2023-05-12T21:43:31.609Z,101001.06
2023-05-12T21:46:34.424Z,100995.09
2023-05-12T21:49:36.207Z,100994.94
2023-05-12T21:52:37.981Z,100999.28
2023-05-12T21:55:41.166Z,101000.44
2023-05-12T21:58:42.925Z,100999.97
2023-05-12T22:01:44.550Z,100990.75
2023-05-12T22:04:46.567Z,100999.13
2023-05-12T22:07:48.308Z,101000.28
2023-05-12T22:10:49.945Z,100994.56
2023-05-12T22:13:51.530Z,100995.41
2023-05-12T22:16:53.130Z,101006.56
2023-05-12T22:19:54.803Z,100992.03
2023-05-12T22:22:56.460Z,100997.91
2023-05-12T22:25:58.070Z,100985.94
2023-05-12T22:28:59.598Z,100984.53
2023-05-12T22:32:01.163Z,100996.81
2023-05-12T22:35:03.226Z,100995.53
2023-05-12T22:38:04.872Z,100996.75
2023-05-12T22:41:06.457Z,101004.31
2023-05-12T22:44:08.297Z,100993.59
2023-05-12T22:47:10.030Z,100997.22
2023-05-12T22:50:11.926Z,100990.75
2023-05-12T22:53:13.974Z,100989.91
2023-05-12T22:56:15.570Z,100986.91
2023-05-12T22:59:17.189Z,100979.22
2023-05-12T23:02:18.803Z,100986.19
2023-05-12T23:05:21.018Z,100981.03
2023-05-12T23:08:22.583Z,100985.09
2023-05-12T23:11:24.236Z,100981.72
2023-05-12T23:14:25.900Z,100974.91
2023-05-12T23:17:27.472Z,100980.41
2023-05-12T23:20:29.054Z,100984.13
2023-05-12T23:23:30.731Z,100978.84
2023-05-12T23:26:32.526Z,100975.03
2023-05-12T23:29:34.533Z,100966.38
2023-05-12T23:32:36.332Z,100977.44
2023-05-12T23:35:38.038Z,100967.69
2023-05-12T23:38:39.565Z,100964.69
2023-05-12T23:41:41.161Z,100976.91
2023-05-12T23:44:43.143Z,100971.44
2023-05-12T23:47:44.847Z,100973.84
2023-05-12T23:50:46.422Z,100970.97
2023-05-12T23:53:48.161Z,100968.19
2023-05-12T23:56:49.786Z,100972.72
2023-05-12T23:59:51.361Z,100961.47
